sensor_id;sensor_type;location;lat;lon;timestamp;temperature;humidity
38995;DHT22;24769;18.712;99.000;2023-03-16T00:01:41;20.50;99.90
38995;DHT22;24769;18.712;99.000;2023-03-16T00:04:08;20.60;99.90
38995;DHT22;24769;18.712;99.000;2023-03-16T00:06:34;20.60;99.90
38995;DHT22;24769;18.712;99.000;2023-03-16T00:09:02;20.80;99.90
38995;DHT22;24769;18.712;99.000;2023-03-16T00:11:29;20.80;99.90
38995;DHT22;24769;18.712;99.000;2023-03-16T00:13:55;20.80;99.90
38995;DHT22;24769;18.712;99.000;2023-03-16T00:16:23;20.90;99.90
38995;DHT22;24769;18.712;99.000;2023-03-16T00:18:50;20.90;99.90
38995;DHT22;24769;18.712;99.000;2023-03-16T00:21:16;21.00;99.90
38995;DHT22;24769;18.712;99.000;2023-03-16T00:23:43;21.10;99.90
38995;DHT22;24769;18.712;99.000;2023-03-16T00:26:10;21.20;99.90
38995;DHT22;24769;18.712;99.000;2023-03-16T00:28:38;21.20;99.90
38995;DHT22;24769;18.712;99.000;2023-03-16T00:31:09;21.40;99.90
38995;DHT22;24769;18.712;99.000;2023-03-16T00:33:40;21.50;99.90
38995;DHT22;24769;18.712;99.000;2023-03-16T00:36:10;21.50;99.90
38995;DHT22;24769;18.712;99.000;2023-03-16T00:38:40;21.70;99.90
38995;DHT22;24769;18.712;99.000;2023-03-16T00:41:12;21.70;99.90
38995;DHT22;24769;18.712;99.000;2023-03-16T00:43:42;21.80;99.90
38995;DHT22;24769;18.712;99.000;2023-03-16T00:46:12;21.90;99.90
38995;DHT22;24769;18.712;99.000;2023-03-16T00:48:41;21.90;99.90
38995;DHT22;24769;18.712;99.000;2023-03-16T00:51:14;22.00;99.90
38995;DHT22;24769;18.712;99.000;2023-03-16T00:53:43;22.10;99.90
38995;DHT22;24769;18.712;99.000;2023-03-16T00:56:11;22.20;99.90
38995;DHT22;24769;18.712;99.000;2023-03-16T00:58:40;22.40;99.90
38995;DHT22;24769;18.712;99.000;2023-03-16T01:01:15;22.50;99.90
38995;DHT22;24769;18.712;99.000;2023-03-16T01:03:44;22.60;99.90
38995;DHT22;24769;18.712;99.000;2023-03-16T01:06:13;22.80;99.90
38995;DHT22;24769;18.712;99.000;2023-03-16T01:08:40;22.80;99.90
38995;DHT22;24769;18.712;99.000;2023-03-16T01:11:13;23.00;99.90
38995;DHT22;24769;18.712;99.000;2023-03-16T01:13:41;23.10;99.90
38995;DHT22;24769;18.712;99.000;2023-03-16T01:16:08;23.20;99.90
38995;DHT22;24769;18.712;99.000;2023-03-16T01:18:35;23.40;99.90
38995;DHT22;24769;18.712;99.000;2023-03-16T01:21:03;23.70;99.90
38995;DHT22;24769;18.712;99.000;2023-03-16T01:23:30;23.60;99.90
38995;DHT22;24769;18.712;99.000;2023-03-16T01:25:58;23.60;99.90
38995;DHT22;24769;18.712;99.000;2023-03-16T01:28:28;23.80;99.90
38995;DHT22;24769;18.712;99.000;2023-03-16T01:31:00;24.10;99.90
38995;DHT22;24769;18.712;99.000;2023-03-16T01:33:27;24.30;99.90
38995;DHT22;24769;18.712;99.000;2023-03-16T01:35:56;24.40;99.90
38995;DHT22;24769;18.712;99.000;2023-03-16T01:38:23;24.60;95.40
38995;DHT22;24769;18.712;99.000;2023-03-16T01:40:50;24.60;95.10
38995;DHT22;24769;18.712;99.000;2023-03-16T01:43:19;24.60;95.60
38995;DHT22;24769;18.712;99.000;2023-03-16T01:48:41;24.90;90.10
38995;DHT22;24769;18.712;99.000;2023-03-16T01:53:50;25.40;89.30
38995;DHT22;24769;18.712;99.000;2023-03-16T01:56:23;25.30;86.30
38995;DHT22;24769;18.712;99.000;2023-03-16T01:58:52;25.60;85.70
38995;DHT22;24769;18.712;99.000;2023-03-16T02:01:26;25.30;81.70
38995;DHT22;24769;18.712;99.000;2023-03-16T02:03:58;25.20;84.00
38995;DHT22;24769;18.712;99.000;2023-03-16T02:06:26;25.30;83.80
38995;DHT22;24769;18.712;99.000;2023-03-16T02:08:55;25.50;82.80
38995;DHT22;24769;18.712;99.000;2023-03-16T02:11:22;25.70;78.90
38995;DHT22;24769;18.712;99.000;2023-03-16T02:13:49;25.80;80.40
38995;DHT22;24769;18.712;99.000;2023-03-16T02:16:19;26.10;78.10
38995;DHT22;24769;18.712;99.000;2023-03-16T02:18:47;26.20;74.40
38995;DHT22;24769;18.712;99.000;2023-03-16T02:24:00;25.80;74.30
38995;DHT22;24769;18.712;99.000;2023-03-16T02:26:58;26.10;74.10
38995;DHT22;24769;18.712;99.000;2023-03-16T02:32:23;26.30;71.10
38995;DHT22;24769;18.712;99.000;2023-03-16T02:34:50;26.60;68.80
38995;DHT22;24769;18.712;99.000;2023-03-16T02:37:17;27.00;66.50
38995;DHT22;24769;18.712;99.000;2023-03-16T02:39:43;26.90;63.40
38995;DHT22;24769;18.712;99.000;2023-03-16T02:42:13;27.10;59.30
38995;DHT22;24769;18.712;99.000;2023-03-16T02:44:42;27.20;60.30
38995;DHT22;24769;18.712;99.000;2023-03-16T02:49:50;27.30;60.00
38995;DHT22;24769;18.712;99.000;2023-03-16T02:52:16;27.30;60.50
38995;DHT22;24769;18.712;99.000;2023-03-16T02:54:43;27.70;58.70
38995;DHT22;24769;18.712;99.000;2023-03-16T02:57:10;27.60;59.20
38995;DHT22;24769;18.712;99.000;2023-03-16T02:59:36;27.90;57.30
38995;DHT22;24769;18.712;99.000;2023-03-16T03:02:03;28.00;54.70
38995;DHT22;24769;18.712;99.000;2023-03-16T03:04:29;28.00;54.60
38995;DHT22;24769;18.712;99.000;2023-03-16T03:06:58;27.80;54.20
38995;DHT22;24769;18.712;99.000;2023-03-16T03:09:30;28.00;56.70
38995;DHT22;24769;18.712;99.000;2023-03-16T03:12:00;28.40;53.10
38995;DHT22;24769;18.712;99.000;2023-03-16T03:14:28;28.20;52.70
38995;DHT22;24769;18.712;99.000;2023-03-16T03:16:54;27.90;53.40
38995;DHT22;24769;18.712;99.000;2023-03-16T03:19:21;27.80;54.40
38995;DHT22;24769;18.712;99.000;2023-03-16T03:21:49;28.20;52.40
38995;DHT22;24769;18.712;99.000;2023-03-16T03:24:16;28.10;54.20
38995;DHT22;24769;18.712;99.000;2023-03-16T03:26:43;28.10;52.90
38995;DHT22;24769;18.712;99.000;2023-03-16T03:29:10;27.90;53.80
38995;DHT22;24769;18.712;99.000;2023-03-16T03:31:37;28.20;53.30
38995;DHT22;24769;18.712;99.000;2023-03-16T03:34:04;28.70;52.50
38995;DHT22;24769;18.712;99.000;2023-03-16T03:36:32;29.00;50.40
38995;DHT22;24769;18.712;99.000;2023-03-16T03:38:59;28.90;49.30
38995;DHT22;24769;18.712;99.000;2023-03-16T03:41:31;29.10;49.70
38995;DHT22;24769;18.712;99.000;2023-03-16T03:43:58;28.80;49.10
38995;DHT22;24769;18.712;99.000;2023-03-16T03:46:25;29.50;47.40
38995;DHT22;24769;18.712;99.000;2023-03-16T03:48:52;29.60;44.90
38995;DHT22;24769;18.712;99.000;2023-03-16T03:51:18;29.30;44.50
38995;DHT22;24769;18.712;99.000;2023-03-16T03:53:45;29.20;46.20
38995;DHT22;24769;18.712;99.000;2023-03-16T03:56:11;29.30;44.10
38995;DHT22;24769;18.712;99.000;2023-03-16T03:58:38;29.50;44.30
38995;DHT22;24769;18.712;99.000;2023-03-16T04:01:05;29.70;44.50
38995;DHT22;24769;18.712;99.000;2023-03-16T04:03:31;29.80;40.30
38995;DHT22;24769;18.712;99.000;2023-03-16T04:05:58;30.00;40.30
38995;DHT22;24769;18.712;99.000;2023-03-16T04:08:24;30.10;39.20
38995;DHT22;24769;18.712;99.000;2023-03-16T04:10:51;30.20;35.80
38995;DHT22;24769;18.712;99.000;2023-03-16T04:13:17;30.00;36.90
38995;DHT22;24769;18.712;99.000;2023-03-16T04:15:44;30.30;34.70
38995;DHT22;24769;18.712;99.000;2023-03-16T04:18:11;30.00;35.50
38995;DHT22;24769;18.712;99.000;2023-03-16T04:20:38;30.20;35.20
38995;DHT22;24769;18.712;99.000;2023-03-16T04:23:04;30.20;35.20
38995;DHT22;24769;18.712;99.000;2023-03-16T04:25:31;30.40;34.90
38995;DHT22;24769;18.712;99.000;2023-03-16T04:27:58;30.60;34.30
38995;DHT22;24769;18.712;99.000;2023-03-16T04:30:24;30.90;34.80
38995;DHT22;24769;18.712;99.000;2023-03-16T04:32:51;30.90;33.30
38995;DHT22;24769;18.712;99.000;2023-03-16T04:35:17;30.90;32.60
38995;DHT22;24769;18.712;99.000;2023-03-16T04:37:44;30.90;31.60
38995;DHT22;24769;18.712;99.000;2023-03-16T04:40:11;30.70;32.10
38995;DHT22;24769;18.712;99.000;2023-03-16T04:42:41;30.90;31.50
38995;DHT22;24769;18.712;99.000;2023-03-16T04:45:08;30.60;31.70
38995;DHT22;24769;18.712;99.000;2023-03-16T04:47:34;30.70;32.50
38995;DHT22;24769;18.712;99.000;2023-03-16T04:50:03;31.10;32.20
38995;DHT22;24769;18.712;99.000;2023-03-16T04:52:31;31.30;30.50
38995;DHT22;24769;18.712;99.000;2023-03-16T04:54:58;31.20;30.30
38995;DHT22;24769;18.712;99.000;2023-03-16T04:57:24;31.00;28.80
38995;DHT22;24769;18.712;99.000;2023-03-16T04:59:51;30.90;27.90
38995;DHT22;24769;18.712;99.000;2023-03-16T05:02:17;31.10;26.50
38995;DHT22;24769;18.712;99.000;2023-03-16T05:04:45;31.30;27.50
38995;DHT22;24769;18.712;99.000;2023-03-16T05:07:11;31.20;27.10
38995;DHT22;24769;18.712;99.000;2023-03-16T05:09:38;31.20;27.90
38995;DHT22;24769;18.712;99.000;2023-03-16T05:12:04;31.50;27.70
38995;DHT22;24769;18.712;99.000;2023-03-16T05:14:31;31.90;27.70
38995;DHT22;24769;18.712;99.000;2023-03-16T05:16:57;31.80;28.00
38995;DHT22;24769;18.712;99.000;2023-03-16T05:19:24;31.90;28.70
38995;DHT22;24769;18.712;99.000;2023-03-16T05:21:50;32.00;27.00
38995;DHT22;24769;18.712;99.000;2023-03-16T05:24:17;32.10;27.80
38995;DHT22;24769;18.712;99.000;2023-03-16T05:26:43;31.70;26.80
38995;DHT22;24769;18.712;99.000;2023-03-16T05:29:10;31.60;26.60
38995;DHT22;24769;18.712;99.000;2023-03-16T05:31:36;31.60;26.90
38995;DHT22;24769;18.712;99.000;2023-03-16T05:34:03;32.00;25.60
38995;DHT22;24769;18.712;99.000;2023-03-16T05:36:29;32.10;25.50
38995;DHT22;24769;18.712;99.000;2023-03-16T05:38:56;32.00;26.40
38995;DHT22;24769;18.712;99.000;2023-03-16T05:41:24;32.10;26.30
38995;DHT22;24769;18.712;99.000;2023-03-16T05:43:50;32.20;23.90
38995;DHT22;24769;18.712;99.000;2023-03-16T05:46:17;31.80;24.80
38995;DHT22;24769;18.712;99.000;2023-03-16T05:48:43;31.80;25.80
38995;DHT22;24769;18.712;99.000;2023-03-16T05:51:10;32.50;24.00
38995;DHT22;24769;18.712;99.000;2023-03-16T05:53:39;32.20;24.40
38995;DHT22;24769;18.712;99.000;2023-03-16T05:56:05;32.30;24.60
38995;DHT22;24769;18.712;99.000;2023-03-16T05:58:32;32.60;24.70
38995;DHT22;24769;18.712;99.000;2023-03-16T06:00:59;32.80;24.30
38995;DHT22;24769;18.712;99.000;2023-03-16T06:03:30;32.50;22.60
38995;DHT22;24769;18.712;99.000;2023-03-16T06:05:56;33.00;23.70
38995;DHT22;24769;18.712;99.000;2023-03-16T06:08:23;33.00;23.60
38995;DHT22;24769;18.712;99.000;2023-03-16T06:10:49;33.00;22.70
38995;DHT22;24769;18.712;99.000;2023-03-16T06:13:16;33.10;24.80
38995;DHT22;24769;18.712;99.000;2023-03-16T06:15:42;33.30;23.60
38995;DHT22;24769;18.712;99.000;2023-03-16T06:18:09;33.00;24.30
38995;DHT22;24769;18.712;99.000;2023-03-16T06:20:35;32.90;21.90
38995;DHT22;24769;18.712;99.000;2023-03-16T06:23:02;32.80;22.20
38995;DHT22;24769;18.712;99.000;2023-03-16T06:25:29;33.00;23.70
38995;DHT22;24769;18.712;99.000;2023-03-16T06:27:56;33.60;22.70
38995;DHT22;24769;18.712;99.000;2023-03-16T06:30:22;33.70;21.10
38995;DHT22;24769;18.712;99.000;2023-03-16T06:32:49;32.90;20.70
38995;DHT22;24769;18.712;99.000;2023-03-16T06:35:17;33.10;21.90
38995;DHT22;24769;18.712;99.000;2023-03-16T06:37:44;33.30;21.40
38995;DHT22;24769;18.712;99.000;2023-03-16T06:40:11;33.00;21.70
38995;DHT22;24769;18.712;99.000;2023-03-16T06:42:39;33.40;21.70
38995;DHT22;24769;18.712;99.000;2023-03-16T06:45:06;33.60;21.00
38995;DHT22;24769;18.712;99.000;2023-03-16T06:47:33;33.30;19.90
38995;DHT22;24769;18.712;99.000;2023-03-16T06:49:59;33.40;20.90
38995;DHT22;24769;18.712;99.000;2023-03-16T06:52:26;33.50;19.10
38995;DHT22;24769;18.712;99.000;2023-03-16T06:54:53;33.30;20.00
38995;DHT22;24769;18.712;99.000;2023-03-16T06:57:19;33.30;19.50
38995;DHT22;24769;18.712;99.000;2023-03-16T06:59:46;33.20;19.50
38995;DHT22;24769;18.712;99.000;2023-03-16T07:02:13;33.00;20.70
38995;DHT22;24769;18.712;99.000;2023-03-16T07:04:40;33.20;19.30
38995;DHT22;24769;18.712;99.000;2023-03-16T07:07:07;33.00;20.80
38995;DHT22;24769;18.712;99.000;2023-03-16T07:09:35;33.00;20.30
38995;DHT22;24769;18.712;99.000;2023-03-16T07:12:01;33.10;19.80
38995;DHT22;24769;18.712;99.000;2023-03-16T07:14:28;33.30;19.30
38995;DHT22;24769;18.712;99.000;2023-03-16T07:16:55;33.50;19.60
38995;DHT22;24769;18.712;99.000;2023-03-16T07:19:21;33.40;19.00
38995;DHT22;24769;18.712;99.000;2023-03-16T07:21:48;33.20;18.50
38995;DHT22;24769;18.712;99.000;2023-03-16T07:24:16;33.40;17.70
38995;DHT22;24769;18.712;99.000;2023-03-16T07:26:43;33.20;18.40
38995;DHT22;24769;18.712;99.000;2023-03-16T07:29:09;33.60;18.80
38995;DHT22;24769;18.712;99.000;2023-03-16T07:31:37;33.90;18.30
38995;DHT22;24769;18.712;99.000;2023-03-16T07:34:04;33.60;18.20
38995;DHT22;24769;18.712;99.000;2023-03-16T07:36:30;33.30;19.90
38995;DHT22;24769;18.712;99.000;2023-03-16T07:38:57;33.50;19.20
38995;DHT22;24769;18.712;99.000;2023-03-16T07:41:24;33.30;18.40
38995;DHT22;24769;18.712;99.000;2023-03-16T07:43:51;33.30;18.30
38995;DHT22;24769;18.712;99.000;2023-03-16T07:46:18;33.30;18.40
38995;DHT22;24769;18.712;99.000;2023-03-16T07:48:45;33.20;18.70
38995;DHT22;24769;18.712;99.000;2023-03-16T07:51:12;33.30;19.30
38995;DHT22;24769;18.712;99.000;2023-03-16T07:53:39;33.40;18.30
38995;DHT22;24769;18.712;99.000;2023-03-16T07:56:07;33.60;18.20
38995;DHT22;24769;18.712;99.000;2023-03-16T07:58:33;33.70;18.70
38995;DHT22;24769;18.712;99.000;2023-03-16T08:01:00;33.70;17.60
38995;DHT22;24769;18.712;99.000;2023-03-16T08:03:28;33.50;17.10
38995;DHT22;24769;18.712;99.000;2023-03-16T08:05:57;33.50;17.30
38995;DHT22;24769;18.712;99.000;2023-03-16T08:08:23;33.50;17.60
38995;DHT22;24769;18.712;99.000;2023-03-16T08:10:51;33.20;17.90
38995;DHT22;24769;18.712;99.000;2023-03-16T08:13:18;33.60;17.40
38995;DHT22;24769;18.712;99.000;2023-03-16T08:15:49;33.80;17.00
38995;DHT22;24769;18.712;99.000;2023-03-16T08:18:28;33.50;16.70
38995;DHT22;24769;18.712;99.000;2023-03-16T08:20:56;33.20;17.00
38995;DHT22;24769;18.712;99.000;2023-03-16T08:23:23;33.40;17.00
38995;DHT22;24769;18.712;99.000;2023-03-16T08:25:54;33.30;18.40
38995;DHT22;24769;18.712;99.000;2023-03-16T08:28:22;33.30;17.30
38995;DHT22;24769;18.712;99.000;2023-03-16T08:30:52;33.30;17.40
38995;DHT22;24769;18.712;99.000;2023-03-16T08:33:20;33.40;17.40
38995;DHT22;24769;18.712;99.000;2023-03-16T08:35:47;33.30;17.80
38995;DHT22;24769;18.712;99.000;2023-03-16T08:38:15;33.40;17.70
38995;DHT22;24769;18.712;99.000;2023-03-16T08:40:41;33.30;17.70
38995;DHT22;24769;18.712;99.000;2023-03-16T08:43:14;33.30;17.50
38995;DHT22;24769;18.712;99.000;2023-03-16T08:45:44;33.30;17.80
38995;DHT22;24769;18.712;99.000;2023-03-16T08:48:11;33.40;17.80
38995;DHT22;24769;18.712;99.000;2023-03-16T08:50:40;33.20;17.30
38995;DHT22;24769;18.712;99.000;2023-03-16T08:53:10;33.10;17.70
38995;DHT22;24769;18.712;99.000;2023-03-16T08:55:37;33.40;16.80
38995;DHT22;24769;18.712;99.000;2023-03-16T08:58:03;33.40;16.90
38995;DHT22;24769;18.712;99.000;2023-03-16T09:00:30;33.40;17.60
38995;DHT22;24769;18.712;99.000;2023-03-16T09:05:38;33.50;16.30
38995;DHT22;24769;18.712;99.000;2023-03-16T09:08:05;33.30;16.10
38995;DHT22;24769;18.712;99.000;2023-03-16T09:10:32;33.30;16.10
38995;DHT22;24769;18.712;99.000;2023-03-16T09:12:58;33.30;16.20
38995;DHT22;24769;18.712;99.000;2023-03-16T09:15:24;33.10;17.00
38995;DHT22;24769;18.712;99.000;2023-03-16T09:17:51;33.40;16.60
38995;DHT22;24769;18.712;99.000;2023-03-16T09:20:19;33.10;16.70
38995;DHT22;24769;18.712;99.000;2023-03-16T09:22:46;32.90;17.00
38995;DHT22;24769;18.712;99.000;2023-03-16T09:25:13;32.80;18.90
38995;DHT22;24769;18.712;99.000;2023-03-16T09:27:40;32.60;17.10
38995;DHT22;24769;18.712;99.000;2023-03-16T09:30:08;32.50;18.00
38995;DHT22;24769;18.712;99.000;2023-03-16T09:32:35;32.20;18.60
38995;DHT22;24769;18.712;99.000;2023-03-16T09:35:02;32.10;19.00
38995;DHT22;24769;18.712;99.000;2023-03-16T09:37:31;32.10;18.90
38995;DHT22;24769;18.712;99.000;2023-03-16T09:39:58;32.10;19.90
38995;DHT22;24769;18.712;99.000;2023-03-16T09:42:43;31.90;20.50
38995;DHT22;24769;18.712;99.000;2023-03-16T09:46:16;31.90;20.40
38995;DHT22;24769;18.712;99.000;2023-03-16T09:48:40;31.80;22.20
38995;DHT22;24769;18.712;99.000;2023-03-16T09:51:27;31.60;20.50
38995;DHT22;24769;18.712;99.000;2023-03-16T09:54:00;31.60;20.60
38995;DHT22;24769;18.712;99.000;2023-03-16T09:56:39;31.30;22.80
38995;DHT22;24769;18.712;99.000;2023-03-16T09:59:14;31.20;23.30
38995;DHT22;24769;18.712;99.000;2023-03-16T10:12:16;31.00;25.00
38995;DHT22;24769;18.712;99.000;2023-03-16T10:14:57;31.10;21.30
38995;DHT22;24769;18.712;99.000;2023-03-16T10:17:37;31.30;20.20
38995;DHT22;24769;18.712;99.000;2023-03-16T10:20:14;31.40;20.90
38995;DHT22;24769;18.712;99.000;2023-03-16T10:22:44;31.30;21.00
38995;DHT22;24769;18.712;99.000;2023-03-16T10:27:58;31.10;24.30
38995;DHT22;24769;18.712;99.000;2023-03-16T10:30:29;30.90;24.80
38995;DHT22;24769;18.712;99.000;2023-03-16T10:33:02;30.50;25.00
38995;DHT22;24769;18.712;99.000;2023-03-16T10:35:43;30.00;25.70
38995;DHT22;24769;18.712;99.000;2023-03-16T10:41:18;29.60;26.80
38995;DHT22;24769;18.712;99.000;2023-03-16T10:43:56;29.40;26.90
38995;DHT22;24769;18.712;99.000;2023-03-16T10:46:25;29.30;27.20
38995;DHT22;24769;18.712;99.000;2023-03-16T10:48:57;29.20;27.30
38995;DHT22;24769;18.712;99.000;2023-03-16T10:51:35;29.10;26.60
38995;DHT22;24769;18.712;99.000;2023-03-16T10:56:49;29.00;26.30
38995;DHT22;24769;18.712;99.000;2023-03-16T10:59:28;28.80;25.30
38995;DHT22;24769;18.712;99.000;2023-03-16T11:01:57;28.70;24.90
38995;DHT22;24769;18.712;99.000;2023-03-16T11:04:24;28.60;24.80
38995;DHT22;24769;18.712;99.000;2023-03-16T11:06:57;28.50;24.70
38995;DHT22;24769;18.712;99.000;2023-03-16T11:09:31;28.50;24.60
38995;DHT22;24769;18.712;99.000;2023-03-16T11:12:00;28.30;24.50
38995;DHT22;24769;18.712;99.000;2023-03-16T11:14:37;28.30;24.20
38995;DHT22;24769;18.712;99.000;2023-03-16T11:17:41;28.20;24.30
38995;DHT22;24769;18.712;99.000;2023-03-16T11:20:22;28.20;24.80
38995;DHT22;24769;18.712;99.000;2023-03-16T11:22:51;28.20;24.80
38995;DHT22;24769;18.712;99.000;2023-03-16T11:25:37;28.10;24.40
38995;DHT22;24769;18.712;99.000;2023-03-16T11:28:23;28.10;23.60
38995;DHT22;24769;18.712;99.000;2023-03-16T11:31:21;28.00;23.30
38995;DHT22;24769;18.712;99.000;2023-03-16T11:33:52;28.00;23.40
38995;DHT22;24769;18.712;99.000;2023-03-16T11:36:33;28.00;23.10
38995;DHT22;24769;18.712;99.000;2023-03-16T11:39:14;27.90;23.10
38995;DHT22;24769;18.712;99.000;2023-03-16T11:53:20;27.80;24.90
38995;DHT22;24769;18.712;99.000;2023-03-16T11:56:05;27.80;24.50
38995;DHT22;24769;18.712;99.000;2023-03-16T11:59:09;27.80;24.30
38995;DHT22;24769;18.712;99.000;2023-03-16T12:05:38;27.70;25.00
38995;DHT22;24769;18.712;99.000;2023-03-16T12:10:24;27.70;25.50
38995;DHT22;24769;18.712;99.000;2023-03-16T12:16:18;27.70;26.10
38995;DHT22;24769;18.712;99.000;2023-03-16T12:19:08;27.70;26.70
38995;DHT22;24769;18.712;99.000;2023-03-16T12:21:44;27.60;27.10
38995;DHT22;24769;18.712;99.000;2023-03-16T12:24:21;27.50;27.80
38995;DHT22;24769;18.712;99.000;2023-03-16T12:26:50;27.60;27.40
38995;DHT22;24769;18.712;99.000;2023-03-16T12:29:40;27.70;27.60
38995;DHT22;24769;18.712;99.000;2023-03-16T12:32:34;27.70;26.70
38995;DHT22;24769;18.712;99.000;2023-03-16T12:38:17;27.60;28.10
38995;DHT22;24769;18.712;99.000;2023-03-16T12:49:24;27.40;28.80
38995;DHT22;24769;18.712;99.000;2023-03-16T12:52:02;27.40;28.90
38995;DHT22;24769;18.712;99.000;2023-03-16T12:54:29;27.50;28.80
38995;DHT22;24769;18.712;99.000;2023-03-16T12:57:05;27.50;28.80
38995;DHT22;24769;18.712;99.000;2023-03-16T12:59:56;27.30;28.90
38995;DHT22;24769;18.712;99.000;2023-03-16T13:02:31;27.30;29.20
38995;DHT22;24769;18.712;99.000;2023-03-16T13:05:15;27.30;30.30
38995;DHT22;24769;18.712;99.000;2023-03-16T13:08:05;27.30;30.60
38995;DHT22;24769;18.712;99.000;2023-03-16T13:10:34;27.40;28.20
38995;DHT22;24769;18.712;99.000;2023-03-16T13:13:15;27.40;28.90
38995;DHT22;24769;18.712;99.000;2023-03-16T13:15:44;27.40;30.70
38995;DHT22;24769;18.712;99.000;2023-03-16T13:20:56;26.70;41.60
38995;DHT22;24769;18.712;99.000;2023-03-16T13:23:26;26.20;50.40
38995;DHT22;24769;18.712;99.000;2023-03-16T13:28:38;25.10;96.60
38995;DHT22;24769;18.712;99.000;2023-03-16T13:31:26;24.50;99.90
38995;DHT22;24769;18.712;99.000;2023-03-16T13:33:55;24.30;99.90
38995;DHT22;24769;18.712;99.000;2023-03-16T13:36:26;23.90;99.90
38995;DHT22;24769;18.712;99.000;2023-03-16T13:41:38;23.30;99.90
38995;DHT22;24769;18.712;99.000;2023-03-16T13:44:13;22.60;99.90
38995;DHT22;24769;18.712;99.000;2023-03-16T13:46:40;22.20;99.90
38995;DHT22;24769;18.712;99.000;2023-03-16T13:49:10;21.90;99.90
38995;DHT22;24769;18.712;99.000;2023-03-16T13:51:37;21.80;99.90
38995;DHT22;24769;18.712;99.000;2023-03-16T13:54:37;21.70;99.90
38995;DHT22;24769;18.712;99.000;2023-03-16T13:57:05;21.60;99.90
38995;DHT22;24769;18.712;99.000;2023-03-16T13:59:34;21.60;99.90
38995;DHT22;24769;18.712;99.000;2023-03-16T14:02:02;21.60;99.90
38995;DHT22;24769;18.712;99.000;2023-03-16T14:04:31;21.80;99.90
38995;DHT22;24769;18.712;99.000;2023-03-16T14:07:00;21.90;99.90
38995;DHT22;24769;18.712;99.000;2023-03-16T14:09:30;21.80;99.90
38995;DHT22;24769;18.712;99.000;2023-03-16T14:11:59;21.90;99.90
38995;DHT22;24769;18.712;99.000;2023-03-16T14:14:29;21.90;99.90
38995;DHT22;24769;18.712;99.000;2023-03-16T14:17:12;22.10;99.90
38995;DHT22;24769;18.712;99.000;2023-03-16T14:19:50;22.30;99.90
38995;DHT22;24769;18.712;99.000;2023-03-16T14:22:22;22.50;99.90
38995;DHT22;24769;18.712;99.000;2023-03-16T14:24:54;22.50;99.90
38995;DHT22;24769;18.712;99.000;2023-03-16T14:30:26;22.50;99.90
38995;DHT22;24769;18.712;99.000;2023-03-16T14:33:01;22.60;99.90
38995;DHT22;24769;18.712;99.000;2023-03-16T14:35:31;22.60;99.90
38995;DHT22;24769;18.712;99.000;2023-03-16T14:41:01;23.00;99.90
38995;DHT22;24769;18.712;99.000;2023-03-16T14:43:33;22.50;99.90
38995;DHT22;24769;18.712;99.000;2023-03-16T14:46:04;22.20;99.90
38995;DHT22;24769;18.712;99.000;2023-03-16T14:48:33;22.30;99.90
38995;DHT22;24769;18.712;99.000;2023-03-16T14:51:02;22.20;99.90
38995;DHT22;24769;18.712;99.000;2023-03-16T14:53:29;22.10;99.90
38995;DHT22;24769;18.712;99.000;2023-03-16T14:55:57;22.20;99.90
38995;DHT22;24769;18.712;99.000;2023-03-16T14:58:24;22.30;99.90
38995;DHT22;24769;18.712;99.000;2023-03-16T15:00:52;22.30;99.90
38995;DHT22;24769;18.712;99.000;2023-03-16T15:03:21;22.30;99.90
38995;DHT22;24769;18.712;99.000;2023-03-16T15:05:50;22.30;99.90
38995;DHT22;24769;18.712;99.000;2023-03-16T15:08:22;22.20;99.90
38995;DHT22;24769;18.712;99.000;2023-03-16T15:10:52;22.30;99.90
38995;DHT22;24769;18.712;99.000;2023-03-16T15:13:21;22.30;99.90
38995;DHT22;24769;18.712;99.000;2023-03-16T15:16:11;22.30;99.90
38995;DHT22;24769;18.712;99.000;2023-03-16T15:18:39;22.20;99.90
38995;DHT22;24769;18.712;99.000;2023-03-16T15:21:13;22.20;99.90
38995;DHT22;24769;18.712;99.000;2023-03-16T15:23:41;22.20;99.90
38995;DHT22;24769;18.712;99.000;2023-03-16T15:26:13;22.10;99.90
38995;DHT22;24769;18.712;99.000;2023-03-16T15:28:40;22.30;99.90
38995;DHT22;24769;18.712;99.000;2023-03-16T15:31:09;22.30;99.90
38995;DHT22;24769;18.712;99.000;2023-03-16T15:33:37;22.10;99.90
38995;DHT22;24769;18.712;99.000;2023-03-16T15:36:19;22.10;99.90
38995;DHT22;24769;18.712;99.000;2023-03-16T15:38:48;22.00;99.90
38995;DHT22;24769;18.712;99.000;2023-03-16T15:41:16;22.00;99.90
38995;DHT22;24769;18.712;99.000;2023-03-16T15:43:43;22.00;99.90
38995;DHT22;24769;18.712;99.000;2023-03-16T15:46:11;21.90;99.90
38995;DHT22;24769;18.712;99.000;2023-03-16T15:48:38;22.20;99.90
38995;DHT22;24769;18.712;99.000;2023-03-16T15:51:24;22.10;99.90
38995;DHT22;24769;18.712;99.000;2023-03-16T15:53:57;22.00;99.90
38995;DHT22;24769;18.712;99.000;2023-03-16T15:56:28;22.00;99.90
38995;DHT22;24769;18.712;99.000;2023-03-16T15:59:01;22.20;99.90
38995;DHT22;24769;18.712;99.000;2023-03-16T16:01:31;22.20;99.90
38995;DHT22;24769;18.712;99.000;2023-03-16T16:04:00;22.30;99.90
38995;DHT22;24769;18.712;99.000;2023-03-16T16:06:28;22.50;99.90
38995;DHT22;24769;18.712;99.000;2023-03-16T16:08:55;22.40;99.90
38995;DHT22;24769;18.712;99.000;2023-03-16T16:11:26;22.30;99.90
38995;DHT22;24769;18.712;99.000;2023-03-16T16:13:57;22.30;99.90
38995;DHT22;24769;18.712;99.000;2023-03-16T16:16:28;22.30;99.90
38995;DHT22;24769;18.712;99.000;2023-03-16T16:18:55;22.40;99.90
38995;DHT22;24769;18.712;99.000;2023-03-16T16:21:26;22.40;99.90
38995;DHT22;24769;18.712;99.000;2023-03-16T16:23:55;22.40;99.90
38995;DHT22;24769;18.712;99.000;2023-03-16T16:26:38;22.30;99.90
38995;DHT22;24769;18.712;99.000;2023-03-16T16:29:12;22.30;99.90
38995;DHT22;24769;18.712;99.000;2023-03-16T16:31:39;22.30;99.90
38995;DHT22;24769;18.712;99.000;2023-03-16T16:34:16;22.10;99.90
38995;DHT22;24769;18.712;99.000;2023-03-16T16:36:46;22.00;99.90
38995;DHT22;24769;18.712;99.000;2023-03-16T16:39:13;22.00;99.90
38995;DHT22;24769;18.712;99.000;2023-03-16T16:41:39;22.00;99.90
38995;DHT22;24769;18.712;99.000;2023-03-16T16:44:21;21.80;99.90
38995;DHT22;24769;18.712;99.000;2023-03-16T16:46:49;21.90;99.90
38995;DHT22;24769;18.712;99.000;2023-03-16T16:49:24;21.80;99.90
38995;DHT22;24769;18.712;99.000;2023-03-16T16:51:52;22.00;99.90
38995;DHT22;24769;18.712;99.000;2023-03-16T16:54:21;22.00;99.90
38995;DHT22;24769;18.712;99.000;2023-03-16T16:56:49;22.00;99.90